createdAt,value
2023-08-15T00:00:00.302Z,24.8
2023-08-15T00:01:02.017Z,24.8
2023-08-15T00:02:04.105Z,24.8
2023-08-15T00:03:05.883Z,24.9
2023-08-15T00:04:08.285Z,24.9
2023-08-15T00:05:09.981Z,24.9
2023-08-15T00:06:11.795Z,24.9
2023-08-15T00:07:13.542Z,24.9
2023-08-15T00:08:15.309Z,24.8
2023-08-15T00:09:17.001Z,24.8
2023-08-15T00:10:18.691Z,24.8
2023-08-15T00:11:20.459Z,24.8
2023-08-15T00:12:22.344Z,24.7
2023-08-15T00:13:24.064Z,24.7
2023-08-15T00:14:25.792Z,24.8
2023-08-15T00:15:27.824Z,24.8
2023-08-15T00:16:29.527Z,24.7
2023-08-15T00:17:31.694Z,24.8
2023-08-15T00:18:33.653Z,24.7
2023-08-15T00:19:35.376Z,24.8
2023-08-15T00:20:37.081Z,24.8
2023-08-15T00:21:38.823Z,24.7
2023-08-15T00:22:40.558Z,24.7
2023-08-15T00:23:42.388Z,24.6
2023-08-15T00:24:44.180Z,24.7
2023-08-15T00:25:45.872Z,24.7
2023-08-15T00:26:47.631Z,24.7
2023-08-15T00:27:49.337Z,24.7
2023-08-15T00:28:51.127Z,24.7
2023-08-15T00:29:52.851Z,24.7
2023-08-15T00:30:54.528Z,24.7
2023-08-15T00:31:56.411Z,24.7
2023-08-15T00:33:01.088Z,24.7
2023-08-15T00:34:03.516Z,24.8
2023-08-15T00:35:05.373Z,24.8
2023-08-15T00:36:07.214Z,24.8
2023-08-15T00:37:08.952Z,24.8
2023-08-15T00:38:10.683Z,24.8
2023-08-15T00:39:12.975Z,24.8
2023-08-15T00:40:14.762Z,24.8
2023-08-15T00:41:16.434Z,24.8
2023-08-15T00:42:18.245Z,24.8
2023-08-15T00:43:19.942Z,24.8
2023-08-15T00:44:22.002Z,24.8
2023-08-15T00:45:23.875Z,24.8
2023-08-15T00:46:25.621Z,24.8
2023-08-15T00:47:30.821Z,24.8
2023-08-15T00:48:32.868Z,24.7
2023-08-15T00:49:34.615Z,24.6
2023-08-15T00:50:36.303Z,24.5
2023-08-15T00:51:38.022Z,24.4
2023-08-15T00:52:39.767Z,24.4
2023-08-15T00:53:41.509Z,24.3
2023-08-15T00:54:43.236Z,24.3
2023-08-15T00:55:45.454Z,24.3
2023-08-15T00:56:47.161Z,24.3
2023-08-15T00:57:48.922Z,24.2
2023-08-15T00:58:51.151Z,24.2
2023-08-15T00:59:52.910Z,24.2
2023-08-15T01:00:57.748Z,24.1
2023-08-15T01:01:59.515Z,24.1
2023-08-15T01:03:01.630Z,24.1
2023-08-15T01:04:03.989Z,24.2
2023-08-15T01:05:05.795Z,24.2
2023-08-15T01:06:07.519Z,24.2
2023-08-15T01:07:09.234Z,24.1
2023-08-15T01:08:11.012Z,24.1
2023-08-15T01:09:12.725Z,24.1
2023-08-15T01:11:21.200Z,24.1
2023-08-15T01:12:22.995Z,24
2023-08-15T01:13:24.772Z,24
2023-08-15T01:14:26.519Z,24
2023-08-15T01:15:28.307Z,24
2023-08-15T01:16:30.176Z,23.9
2023-08-15T01:17:32.155Z,23.9
2023-08-15T01:18:33.900Z,23.9
2023-08-15T01:19:35.649Z,23.9
2023-08-15T01:20:37.377Z,23.9
2023-08-15T01:21:39.091Z,23.9
2023-08-15T01:22:40.868Z,23.9
2023-08-15T01:23:42.546Z,23.9
2023-08-15T01:24:44.330Z,23.9
2023-08-15T01:25:46.110Z,23.9
2023-08-15T01:26:47.817Z,23.9
2023-08-15T01:27:49.506Z,23.8
2023-08-15T01:28:51.283Z,23.8
2023-08-15T01:29:53.136Z,23.8
2023-08-15T01:30:54.814Z,23.8
2023-08-15T01:31:56.590Z,23.8
2023-08-15T01:33:01.492Z,23.8
2023-08-15T01:34:03.580Z,23.8
2023-08-15T01:35:05.442Z,23.8
2023-08-15T01:36:10.266Z,23.8
2023-08-15T01:37:12.039Z,23.8
2023-08-15T01:38:13.715Z,23.8
2023-08-15T01:39:15.457Z,23.8
2023-08-15T01:40:17.208Z,23.8
2023-08-15T01:41:18.916Z,23.8
2023-08-15T01:42:20.640Z,23.8
2023-08-15T01:43:22.340Z,23.8
2023-08-15T01:44:24.124Z,23.7
2023-08-15T01:45:26.026Z,23.7
2023-08-15T01:46:27.799Z,23.7
2023-08-15T01:47:32.524Z,23.7
2023-08-15T01:48:34.788Z,23.7
2023-08-15T01:49:36.543Z,23.7
2023-08-15T01:50:38.273Z,23.7
2023-08-15T01:51:39.987Z,23.7
2023-08-15T01:52:41.703Z,23.7
2023-08-15T01:53:43.379Z,23.7
2023-08-15T01:54:45.212Z,23.7
2023-08-15T01:55:47.003Z,23.7
2023-08-15T01:56:48.713Z,23.6
2023-08-15T01:57:50.568Z,23.6
2023-08-15T01:58:52.247Z,23.7
2023-08-15T01:59:54.014Z,23.7
2023-08-15T02:00:55.753Z,23.7
2023-08-15T02:01:57.905Z,23.7
2023-08-15T02:02:59.689Z,23.7
2023-08-15T02:04:01.839Z,23.7
2023-08-15T02:05:03.681Z,23.6
2023-08-15T02:06:05.592Z,23.6
2023-08-15T02:07:07.400Z,23.7
2023-08-15T02:08:09.099Z,23.7
2023-08-15T02:09:10.856Z,23.7
2023-08-15T02:10:12.554Z,23.6
2023-08-15T02:11:14.271Z,23.6
2023-08-15T02:12:16.442Z,23.6
2023-08-15T02:13:18.226Z,23.6
2023-08-15T02:14:19.994Z,23.6
2023-08-15T02:15:21.866Z,23.6
2023-08-15T02:16:23.609Z,23.6
2023-08-15T02:17:25.317Z,23.6
2023-08-15T02:18:27.222Z,23.6
2023-08-15T02:19:29.321Z,23.6
2023-08-15T02:20:31.042Z,23.6
2023-08-15T02:21:32.819Z,23.6
2023-08-15T02:22:34.649Z,23.6
2023-08-15T02:23:36.546Z,23.6
2023-08-15T02:24:38.309Z,23.6
2023-08-15T02:25:40.048Z,23.6
2023-08-15T02:26:41.806Z,23.6
2023-08-15T02:27:43.579Z,23.6
2023-08-15T02:28:45.288Z,23.6
2023-08-15T02:29:47.053Z,23.6
2023-08-15T02:30:48.937Z,23.6
2023-08-15T02:31:50.833Z,23.6
2023-08-15T02:32:52.533Z,23.6
2023-08-15T02:33:54.467Z,23.6
2023-08-15T02:34:56.174Z,23.6
2023-08-15T02:35:57.900Z,23.6
2023-08-15T02:36:59.595Z,23.6
2023-08-15T02:38:01.345Z,23.6
2023-08-15T02:39:03.031Z,23.6
2023-08-15T02:40:04.739Z,23.6
2023-08-15T02:41:06.422Z,23.6
2023-08-15T02:42:08.173Z,23.5
2023-08-15T02:43:09.978Z,23.5
2023-08-15T02:44:11.662Z,23.5
2023-08-15T02:45:13.417Z,23.5
2023-08-15T02:46:15.218Z,23.5
2023-08-15T02:47:17.013Z,23.5
2023-08-15T02:48:21.500Z,23.4
2023-08-15T02:49:23.207Z,23.5
2023-08-15T02:50:24.975Z,23.5
2023-08-15T02:51:26.660Z,23.6
2023-08-15T02:52:28.338Z,23.6
2023-08-15T02:53:30.061Z,23.7
2023-08-15T02:54:31.861Z,23.7
2023-08-15T02:55:33.551Z,23.7
2023-08-15T02:56:35.249Z,23.7
2023-08-15T02:57:36.947Z,23.7
2023-08-15T02:58:38.692Z,23.7
2023-08-15T02:59:43.260Z,23.7
2023-08-15T03:00:44.997Z,23.8
2023-08-15T03:01:47.268Z,23.8
2023-08-15T03:02:49.258Z,23.8
2023-08-15T03:03:51.014Z,23.9
2023-08-15T03:04:52.726Z,23.9
2023-08-15T03:05:54.545Z,23.9
2023-08-15T03:06:56.280Z,23.9
2023-08-15T03:07:58.051Z,23.9
2023-08-15T03:08:59.880Z,24
2023-08-15T03:10:01.774Z,24
2023-08-15T03:11:03.536Z,24
2023-08-15T03:12:05.262Z,24
2023-08-15T03:13:07.059Z,24.1
2023-08-15T03:14:08.755Z,24.1
2023-08-15T03:15:10.442Z,24.1
2023-08-15T03:16:12.156Z,24.1
2023-08-15T03:17:14.226Z,24.1
2023-08-15T03:18:16.019Z,24.1
2023-08-15T03:19:20.429Z,24
2023-08-15T03:20:22.181Z,24
2023-08-15T03:21:23.884Z,24.1
2023-08-15T03:22:25.592Z,24.1
2023-08-15T03:23:27.362Z,24
2023-08-15T03:24:29.104Z,24
2023-08-15T03:25:30.809Z,24
2023-08-15T03:26:32.530Z,24.1
2023-08-15T03:27:34.240Z,24.1
2023-08-15T03:28:36.030Z,24.1
2023-08-15T03:29:37.801Z,24.1
2023-08-15T03:30:39.567Z,24
2023-08-15T03:31:41.599Z,24.1
2023-08-15T03:32:43.639Z,24.1
2023-08-15T03:33:48.591Z,24.1
2023-08-15T03:34:50.336Z,24.1
2023-08-15T03:35:52.081Z,24.1
2023-08-15T03:36:53.839Z,24.1
2023-08-15T03:37:55.680Z,24.2
2023-08-15T03:38:57.415Z,24.2
2023-08-15T03:39:59.137Z,24.2
2023-08-15T03:41:00.824Z,24.2
2023-08-15T03:42:02.516Z,24.2
2023-08-15T03:43:04.862Z,24.2
2023-08-15T03:44:10.176Z,24.2
2023-08-15T03:45:11.921Z,24.1
2023-08-15T03:46:13.718Z,24.1
2023-08-15T03:47:16.085Z,24.1
2023-08-15T03:48:17.850Z,24.1
2023-08-15T03:49:19.624Z,24.1
2023-08-15T03:50:21.346Z,24.1
2023-08-15T03:51:38.406Z,24.2
2023-08-15T03:52:49.442Z,24.2
2023-08-15T03:53:51.128Z,24.2
2023-08-15T03:54:53.077Z,24.2
2023-08-15T03:55:57.805Z,24.2
2023-08-15T03:56:59.620Z,24.2
2023-08-15T03:58:01.349Z,24.2
2023-08-15T03:59:03.040Z,24.2
2023-08-15T04:00:04.812Z,24.3
2023-08-15T04:01:06.533Z,24.3
2023-08-15T04:02:08.262Z,24.3
2023-08-15T04:03:10.514Z,24.3
2023-08-15T04:04:12.559Z,24.4
2023-08-15T04:05:14.847Z,24.4
2023-08-15T04:06:16.552Z,24.4
2023-08-15T04:07:18.334Z,24.4
2023-08-15T04:08:21.425Z,24.4
2023-08-15T04:09:23.167Z,24.4
2023-08-15T04:10:24.953Z,24.4
2023-08-15T04:11:26.676Z,24.5
2023-08-15T04:12:28.407Z,24.5
2023-08-15T04:13:30.107Z,24.4
2023-08-15T04:14:31.831Z,24.5
2023-08-15T04:15:33.598Z,24.5
2023-08-15T04:16:35.430Z,24.5
2023-08-15T04:17:37.501Z,24.6
2023-08-15T04:18:39.604Z,24.5
2023-08-15T04:19:41.368Z,24.5
2023-08-15T04:20:43.104Z,24.5
2023-08-15T04:21:44.856Z,24.5
2023-08-15T04:22:46.571Z,24.5
2023-08-15T04:23:48.280Z,24.5
2023-08-15T04:24:50.086Z,24.4
2023-08-15T04:25:51.785Z,24.5
2023-08-15T04:26:55.157Z,24.5
2023-08-15T04:27:56.876Z,24.5
2023-08-15T04:28:58.655Z,24.5
2023-08-15T04:30:00.404Z,24.5
2023-08-15T04:31:02.189Z,24.5
2023-08-15T04:32:04.090Z,24.5
2023-08-15T04:33:06.362Z,24.5
2023-08-15T04:34:08.599Z,24.6
2023-08-15T04:35:10.362Z,24.6
2023-08-15T04:36:12.260Z,24.6
2023-08-15T04:37:14.025Z,24.6
2023-08-15T04:38:15.721Z,24.6
2023-08-15T04:39:17.554Z,24.6
2023-08-15T04:40:19.332Z,24.6
2023-08-15T04:41:21.328Z,24.6
2023-08-15T04:42:23.095Z,24.6
2023-08-15T04:43:24.803Z,24.5
2023-08-15T04:44:26.510Z,24.6
2023-08-15T04:45:28.248Z,24.5
2023-08-15T04:46:29.983Z,24.5
2023-08-15T04:47:31.870Z,24.5
2023-08-15T04:48:33.812Z,24.6
2023-08-15T04:49:35.642Z,24.6
2023-08-15T04:50:37.460Z,24.6
2023-08-15T04:51:39.179Z,24.6
2023-08-15T04:52:40.938Z,24.6
2023-08-15T04:53:42.683Z,24.6
2023-08-15T04:54:44.400Z,24.6
2023-08-15T04:55:46.213Z,24.7
2023-08-15T04:56:47.925Z,24.7
2023-08-15T04:57:49.807Z,24.8
2023-08-15T04:58:51.899Z,24.8
2023-08-15T04:59:53.749Z,24.8
2023-08-15T05:00:55.461Z,24.8
2023-08-15T05:01:57.177Z,24.7
2023-08-15T05:02:58.978Z,24.7
2023-08-15T05:04:00.795Z,24.7
2023-08-15T05:05:02.590Z,24.7
2023-08-15T05:06:07.782Z,24.7
2023-08-15T05:07:09.481Z,24.7
2023-08-15T05:08:11.217Z,24.7
2023-08-15T05:09:13.304Z,24.7
2023-08-15T05:10:17.954Z,24.6
2023-08-15T05:11:19.742Z,24.5
2023-08-15T05:12:21.511Z,24.5
2023-08-15T05:13:23.252Z,24.5
2023-08-15T05:14:24.979Z,24.5
2023-08-15T05:15:26.791Z,24.5
2023-08-15T05:16:28.482Z,24.5
2023-08-15T05:17:31.937Z,24.5
2023-08-15T05:18:34.283Z,24.5
2023-08-15T05:19:36.026Z,24.5
2023-08-15T05:20:37.766Z,24.5
2023-08-15T05:21:39.605Z,24.5
2023-08-15T05:22:41.581Z,24.5
2023-08-15T05:23:43.321Z,24.5
2023-08-15T05:24:45.033Z,24.4
2023-08-15T05:25:46.753Z,24.4
2023-08-15T05:26:48.517Z,24.4
2023-08-15T05:27:50.261Z,24.4
2023-08-15T05:28:52.003Z,24.4
2023-08-15T05:29:53.793Z,24.4
2023-08-15T05:30:55.614Z,24.5
2023-08-15T05:31:57.547Z,24.5
2023-08-15T05:32:59.267Z,24.5
2023-08-15T05:34:01.528Z,24.5
2023-08-15T05:35:03.302Z,24.5
2023-08-15T05:36:05.028Z,24.5
2023-08-15T05:37:06.876Z,24.5
2023-08-15T05:38:08.592Z,24.5
2023-08-15T05:39:10.273Z,24.5
2023-08-15T05:40:12.024Z,24.5
2023-08-15T05:41:13.965Z,24.5
2023-08-15T05:42:15.685Z,24.5
2023-08-15T05:43:17.390Z,24.4
2023-08-15T05:44:19.262Z,24.4
2023-08-15T05:45:20.971Z,24.4
2023-08-15T05:46:22.988Z,24.4
2023-08-15T05:47:25.085Z,24.4
2023-08-15T05:48:27.137Z,24.5
2023-08-15T05:49:29.021Z,24.5
2023-08-15T05:50:30.757Z,24.5
2023-08-15T05:51:32.593Z,24.5
2023-08-15T05:52:34.543Z,24.5
2023-08-15T05:53:36.273Z,24.5
2023-08-15T05:54:38.062Z,24.4
2023-08-15T05:55:39.875Z,24.4
2023-08-15T05:56:41.614Z,24.4
2023-08-15T05:57:43.377Z,24.3
2023-08-15T05:58:45.132Z,24.3
2023-08-15T05:59:46.972Z,24.3
2023-08-15T06:00:48.817Z,24.3
2023-08-15T06:01:50.828Z,24.4
2023-08-15T06:02:52.552Z,24.3
2023-08-15T06:03:55.004Z,24.4
2023-08-15T06:04:57.354Z,24.4
2023-08-15T06:05:59.084Z,24.4
2023-08-15T06:07:00.898Z,24.4
2023-08-15T06:08:02.732Z,24.4
2023-08-15T06:09:04.590Z,24.4
2023-08-15T06:10:06.373Z,24.4
2023-08-15T06:11:08.135Z,24.4
2023-08-15T06:12:09.919Z,24.4
2023-08-15T06:13:11.674Z,24.4
2023-08-15T06:14:13.463Z,24.4
2023-08-15T06:15:15.248Z,24.4
2023-08-15T06:16:17.026Z,24.3
2023-08-15T06:17:21.675Z,24.4
2023-08-15T06:18:24.978Z,24.4
2023-08-15T06:19:26.768Z,24.4
2023-08-15T06:20:28.500Z,24.4
2023-08-15T06:21:30.234Z,24.4
2023-08-15T06:22:32.096Z,24.4
2023-08-15T06:23:33.884Z,24.4
2023-08-15T06:24:35.904Z,24.4
2023-08-15T06:25:37.569Z,24.4
2023-08-15T06:26:39.576Z,24.4
2023-08-15T06:27:41.329Z,24.3
2023-08-15T06:28:43.075Z,24.3
2023-08-15T06:29:44.774Z,24.3
2023-08-15T06:30:46.592Z,24.3
2023-08-15T06:31:48.452Z,24.4
2023-08-15T06:32:50.212Z,24.4
2023-08-15T06:33:52.343Z,24.4
2023-08-15T06:34:54.016Z,24.3
2023-08-15T06:35:55.803Z,24.4
2023-08-15T06:36:57.728Z,24.4
2023-08-15T06:37:59.458Z,24.4
2023-08-15T06:39:01.177Z,24.4
2023-08-15T06:40:02.891Z,24.4
2023-08-15T06:41:04.609Z,24.4
2023-08-15T06:42:06.467Z,24.4
2023-08-15T06:43:08.258Z,24.4
2023-08-15T06:44:10.092Z,24.4
2023-08-15T06:45:11.827Z,24.4
2023-08-15T06:46:18.676Z,24.4
2023-08-15T06:47:20.799Z,24.4
2023-08-15T06:48:23.678Z,24.3
2023-08-15T06:49:25.550Z,24.4
2023-08-15T06:50:27.303Z,24.4
2023-08-15T06:51:29.123Z,24.4
2023-08-15T06:52:30.812Z,24.5
2023-08-15T06:53:32.779Z,24.6
2023-08-15T06:54:34.657Z,24.6
2023-08-15T06:55:36.412Z,24.6
2023-08-15T06:56:38.225Z,24.7
2023-08-15T06:57:40.115Z,24.8
2023-08-15T06:58:42.006Z,24.8
2023-08-15T06:59:43.781Z,24.8
2023-08-15T07:00:45.711Z,24.8
2023-08-15T07:01:49.325Z,24.8
2023-08-15T07:02:51.126Z,24.9
2023-08-15T07:03:53.558Z,24.9
2023-08-15T07:04:55.896Z,24.9
2023-08-15T07:05:57.643Z,24.9
2023-08-15T07:06:59.425Z,24.9
2023-08-15T07:08:01.173Z,24.9
2023-08-15T07:09:12.020Z,25
2023-08-15T07:10:13.798Z,25
2023-08-15T07:11:15.586Z,25
2023-08-15T07:12:17.372Z,25
2023-08-15T07:13:19.138Z,25.1
2023-08-15T07:14:20.947Z,25.1
2023-08-15T07:15:22.765Z,25.1
2023-08-15T07:16:24.650Z,25.1
2023-08-15T07:17:26.918Z,25.1
2023-08-15T07:18:28.992Z,25.1
2023-08-15T07:19:30.750Z,25.2
2023-08-15T07:20:34.147Z,25.2
2023-08-15T07:21:39.627Z,25.2
2023-08-15T07:22:41.365Z,25.2
2023-08-15T07:23:43.138Z,25.2
2023-08-15T07:24:44.934Z,25.2
2023-08-15T07:25:47.398Z,25.2
2023-08-15T07:26:49.177Z,25.2
2023-08-15T07:27:50.889Z,25.3
2023-08-15T07:28:52.626Z,25.3
2023-08-15T07:29:54.431Z,25.2
2023-08-15T07:30:56.275Z,25.2
2023-08-15T07:31:58.057Z,25.2
2023-08-15T07:33:00.172Z,25.3
2023-08-15T07:34:02.263Z,25.3
2023-08-15T07:35:03.961Z,25.3
2023-08-15T07:36:05.728Z,25.3
2023-08-15T07:37:07.503Z,25.3
2023-08-15T07:38:09.377Z,25.4
2023-08-15T07:39:11.196Z,25.4
2023-08-15T07:40:12.943Z,25.4
2023-08-15T07:41:14.742Z,25.3
2023-08-15T07:42:16.595Z,25.3
2023-08-15T07:43:18.439Z,25.4
2023-08-15T07:44:20.227Z,25.4
2023-08-15T07:45:22.278Z,25.4
2023-08-15T07:46:24.173Z,25.4
2023-08-15T07:47:26.461Z,25.4
2023-08-15T07:48:28.963Z,25.4
2023-08-15T07:49:30.691Z,25.4
2023-08-15T07:50:32.408Z,25.4
2023-08-15T07:51:34.277Z,25.4
2023-08-15T07:52:36.090Z,25.4
2023-08-15T07:53:37.861Z,25.4
2023-08-15T07:54:39.607Z,25.4
2023-08-15T07:55:41.354Z,25.4
2023-08-15T07:56:43.198Z,25.4
2023-08-15T07:57:45.034Z,25.4
2023-08-15T07:58:46.811Z,25.4
2023-08-15T07:59:48.530Z,25.5
2023-08-15T08:00:50.303Z,25.5
2023-08-15T08:01:52.158Z,25.5
2023-08-15T08:02:54.358Z,25.5
2023-08-15T08:03:56.481Z,25.5
2023-08-15T08:04:58.310Z,25.6
2023-08-15T08:06:00.436Z,25.6
2023-08-15T08:07:07.252Z,25.6
2023-08-15T08:08:09.347Z,25.6
2023-08-15T08:09:11.171Z,25.5
2023-08-15T08:10:12.966Z,25.5
2023-08-15T08:11:14.754Z,25.5
2023-08-15T08:12:16.710Z,25.4
2023-08-15T08:13:19.412Z,25.5
2023-08-15T08:14:22.592Z,25.5
2023-08-15T08:15:24.353Z,25.5
2023-08-15T08:16:26.384Z,25.5
2023-08-15T08:17:28.395Z,25.4
2023-08-15T08:18:30.392Z,25.4
2023-08-15T08:19:32.243Z,25.5
2023-08-15T08:20:36.740Z,25.5
2023-08-15T08:21:38.514Z,25.5
2023-08-15T08:22:40.271Z,25.5
2023-08-15T08:23:42.023Z,25.5
2023-08-15T08:24:45.178Z,25.5
2023-08-15T08:25:51.966Z,25.5
2023-08-15T08:26:53.674Z,25.5
2023-08-15T08:27:55.480Z,25.5
2023-08-15T08:28:57.249Z,25.5
2023-08-15T08:29:58.997Z,25.6
2023-08-15T08:31:00.841Z,25.6
2023-08-15T08:32:02.636Z,25.5
2023-08-15T08:33:04.449Z,25.5
2023-08-15T08:34:06.262Z,25.6
2023-08-15T08:35:08.054Z,25.6
2023-08-15T08:36:09.859Z,25.6
2023-08-15T08:37:11.603Z,25.6
2023-08-15T08:38:13.387Z,25.6
2023-08-15T08:39:26.031Z,25.6
2023-08-15T08:40:34.561Z,25.6
2023-08-15T08:41:36.256Z,25.7
2023-08-15T08:42:38.108Z,25.6
2023-08-15T08:43:43.366Z,25.6
2023-08-15T08:44:45.213Z,25.6
2023-08-15T08:45:47.017Z,25.6
2023-08-15T08:46:52.219Z,25.6
2023-08-15T08:47:54.216Z,25.6
2023-08-15T08:48:56.113Z,25.7
2023-08-15T08:49:58.075Z,25.7
2023-08-15T08:50:59.801Z,25.6
2023-08-15T08:52:01.611Z,25.6
2023-08-15T08:53:03.543Z,25.6
2023-08-15T08:54:05.282Z,25.6
2023-08-15T08:55:07.070Z,25.7
2023-08-15T08:56:08.883Z,25.6
2023-08-15T08:57:10.609Z,25.7
2023-08-15T08:58:12.379Z,25.7
2023-08-15T08:59:14.796Z,25.7
2023-08-15T09:00:18.760Z,25.7
2023-08-15T09:01:20.644Z,25.7
2023-08-15T09:02:23.179Z,25.7
2023-08-15T09:03:25.172Z,25.7
2023-08-15T09:04:27.542Z,25.8
2023-08-15T09:05:30.153Z,25.8
2023-08-15T09:06:32.043Z,25.8
2023-08-15T09:07:33.792Z,25.8
2023-08-15T09:08:35.576Z,25.8
2023-08-15T09:09:37.334Z,25.8
2023-08-15T09:10:39.148Z,25.8
2023-08-15T09:11:41.077Z,25.8
2023-08-15T09:12:42.823Z,25.7
2023-08-15T09:13:44.555Z,25.7
2023-08-15T09:14:46.447Z,25.7
2023-08-15T09:15:48.252Z,25.7
2023-08-15T09:16:50.370Z,25.7
2023-08-15T09:17:52.164Z,25.7
2023-08-15T09:18:54.137Z,25.7
2023-08-15T09:19:55.884Z,25.8
2023-08-15T09:20:57.631Z,25.8
2023-08-15T09:21:59.464Z,25.8
2023-08-15T09:23:01.201Z,25.7
2023-08-15T09:24:03.439Z,25.8
2023-08-15T09:25:05.152Z,25.8
2023-08-15T09:26:06.860Z,25.8
2023-08-15T09:27:08.736Z,25.8
2023-08-15T09:28:10.516Z,25.8
2023-08-15T09:29:12.412Z,25.8
2023-08-15T09:30:14.226Z,25.8
2023-08-15T09:31:16.062Z,25.8
2023-08-15T09:32:18.219Z,25.8
2023-08-15T09:33:19.973Z,25.7
2023-08-15T09:34:21.684Z,25.7
2023-08-15T09:35:23.438Z,25.8
2023-08-15T09:36:25.196Z,25.8
2023-08-15T09:37:26.972Z,25.8
2023-08-15T09:38:28.755Z,25.8
2023-08-15T09:39:30.676Z,25.8
2023-08-15T09:40:32.404Z,25.9
2023-08-15T09:41:34.183Z,25.8
2023-08-15T09:42:36.005Z,25.8
2023-08-15T09:43:37.794Z,25.8
2023-08-15T09:44:39.541Z,25.8
2023-08-15T09:45:41.360Z,25.9
2023-08-15T09:46:43.096Z,25.9
2023-08-15T09:47:51.805Z,25.9
2023-08-15T09:48:53.649Z,25.9
2023-08-15T09:49:55.363Z,25.9
2023-08-15T09:50:57.103Z,25.8
2023-08-15T09:51:58.977Z,25.8
2023-08-15T09:53:00.855Z,25.8
2023-08-15T09:54:02.586Z,25.9
2023-08-15T09:55:04.353Z,25.9
2023-08-15T09:56:06.052Z,25.9
2023-08-15T09:57:07.814Z,25.9
2023-08-15T09:58:09.677Z,25.9
2023-08-15T09:59:11.453Z,25.9
2023-08-15T10:00:13.555Z,25.9
2023-08-15T10:01:16.277Z,25.9
2023-08-15T10:02:18.302Z,25.9
2023-08-15T10:03:20.085Z,25.9
2023-08-15T10:04:22.199Z,25.9
2023-08-15T10:05:23.936Z,25.9
2023-08-15T10:06:25.649Z,25.9
2023-08-15T10:07:27.337Z,25.9
2023-08-15T10:08:29.177Z,25.9
2023-08-15T10:09:30.942Z,26
2023-08-15T10:10:32.659Z,26
2023-08-15T10:11:34.471Z,26
2023-08-15T10:12:36.255Z,26
2023-08-15T10:13:38.143Z,26
2023-08-15T10:14:39.942Z,26
2023-08-15T10:15:41.721Z,26
2023-08-15T10:16:43.627Z,26
2023-08-15T10:17:46.211Z,26
2023-08-15T10:18:48.686Z,26
2023-08-15T10:19:50.441Z,26
2023-08-15T10:20:52.296Z,26
2023-08-15T10:21:54.374Z,26.1
2023-08-15T10:22:56.205Z,26.1
2023-08-15T10:23:58.297Z,26.1
2023-08-15T10:25:01.590Z,26.1
2023-08-15T10:26:05.608Z,26.1
2023-08-15T10:27:07.381Z,26.1
2023-08-15T10:28:09.190Z,26.1
2023-08-15T10:29:11.241Z,26.2
2023-08-15T10:30:14.712Z,26.2
2023-08-15T10:31:18.430Z,26.2
2023-08-15T10:32:20.601Z,26.2
2023-08-15T10:33:23.463Z,26.2
2023-08-15T10:34:25.242Z,26.2
2023-08-15T10:35:32.070Z,26.2
2023-08-15T10:36:35.004Z,26.2
2023-08-15T10:37:36.935Z,26.2
2023-08-15T10:38:41.040Z,26.1
2023-08-15T10:39:43.125Z,26.1
2023-08-15T10:40:44.783Z,26.1
2023-08-15T10:41:46.521Z,26.1
2023-08-15T10:42:48.252Z,26.1
2023-08-15T10:43:50.014Z,26.1
2023-08-15T10:44:51.907Z,26.1
2023-08-15T10:45:53.674Z,26.2
2023-08-15T10:46:55.993Z,26.2
2023-08-15T10:48:01.206Z,26.2
2023-08-15T10:49:07.841Z,26.2
2023-08-15T10:50:09.760Z,26.2
2023-08-15T10:51:11.517Z,26.2
2023-08-15T10:52:13.239Z,26.2
2023-08-15T10:53:16.738Z,26.2
2023-08-15T10:54:20.758Z,26.2
2023-08-15T10:55:22.612Z,26.2
2023-08-15T10:56:24.490Z,26.2
2023-08-15T10:57:26.278Z,26.2
2023-08-15T10:58:28.034Z,26.2
2023-08-15T10:59:29.768Z,26.2
2023-08-15T11:00:31.588Z,26.2
2023-08-15T11:01:33.410Z,26.2
2023-08-15T11:02:35.364Z,26.2
2023-08-15T11:03:37.403Z,26.1
2023-08-15T11:04:40.699Z,26.2
2023-08-15T11:05:44.995Z,26.2
2023-08-15T11:06:46.762Z,26.2
2023-08-15T11:07:48.872Z,26.2
2023-08-15T11:08:50.635Z,26.1
2023-08-15T11:09:52.396Z,26.1
2023-08-15T11:10:54.127Z,26.1
2023-08-15T11:11:56.248Z,26.1
2023-08-15T11:12:58.035Z,26.2
2023-08-15T11:13:59.891Z,26.2
2023-08-15T11:15:01.665Z,26.2
2023-08-15T11:16:03.457Z,26.2
2023-08-15T11:17:05.493Z,26.2
2023-08-15T11:18:07.221Z,26.2
2023-08-15T11:19:09.538Z,26.2
2023-08-15T11:20:11.365Z,26.2
2023-08-15T11:21:13.678Z,26.2
2023-08-15T11:22:15.489Z,26.1
2023-08-15T11:23:17.188Z,26.1
2023-08-15T11:24:18.917Z,26.2
2023-08-15T11:25:20.740Z,26.2
2023-08-15T11:26:22.543Z,26.2
2023-08-15T11:27:24.408Z,26.2
2023-08-15T11:28:26.525Z,26.3
2023-08-15T11:29:28.278Z,26.3
2023-08-15T11:30:30.012Z,26.3
2023-08-15T11:31:31.911Z,26.3
2023-08-15T11:32:34.034Z,26.3
2023-08-15T11:33:35.890Z,26.3
2023-08-15T11:34:37.709Z,26.4
2023-08-15T11:35:39.516Z,26.4
2023-08-15T11:36:41.331Z,26.4
2023-08-15T11:37:43.325Z,26.4
2023-08-15T11:38:45.078Z,26.4
2023-08-15T11:39:46.817Z,26.4
2023-08-15T11:40:48.651Z,26.4
2023-08-15T11:41:50.508Z,26.4
2023-08-15T11:42:52.420Z,26.4
2023-08-15T11:43:54.250Z,26.4
2023-08-15T11:44:55.986Z,26.4
2023-08-15T11:45:57.770Z,26.4
2023-08-15T11:47:01.478Z,26.4
2023-08-15T11:48:04.192Z,26.4
2023-08-15T11:49:06.355Z,26.4
2023-08-15T11:50:08.188Z,26.4
2023-08-15T11:51:09.957Z,26.4
2023-08-15T11:52:11.698Z,26.4
2023-08-15T11:53:13.391Z,26.4
2023-08-15T11:54:15.160Z,26.4
2023-08-15T11:55:17.089Z,26.4
2023-08-15T11:56:18.811Z,26.4
2023-08-15T11:57:20.958Z,26.4
2023-08-15T11:58:24.108Z,26.4
2023-08-15T11:59:25.886Z,26.4
2023-08-15T12:00:27.689Z,26.4
2023-08-15T12:01:29.584Z,26.4
2023-08-15T12:02:31.852Z,26.5
2023-08-15T12:03:33.632Z,26.5
2023-08-15T12:04:35.517Z,26.5
2023-08-15T12:05:40.103Z,26.5
2023-08-15T12:06:45.239Z,26.5
2023-08-15T12:07:47.310Z,26.5
2023-08-15T12:08:49.098Z,26.5
2023-08-15T12:09:50.914Z,26.5
2023-08-15T12:10:52.653Z,26.5
2023-08-15T12:11:54.386Z,26.5
2023-08-15T12:12:56.144Z,26.4
2023-08-15T12:13:57.940Z,26.4
2023-08-15T12:14:59.691Z,26.4
2023-08-15T12:16:01.664Z,26.4
2023-08-15T12:17:04.119Z,26.4
2023-08-15T12:18:05.943Z,26.5
2023-08-15T12:19:08.345Z,26.5
2023-08-15T12:20:10.141Z,26.5
2023-08-15T12:21:13.556Z,26.5
2023-08-15T12:22:17.995Z,26.5
2023-08-15T12:23:27.011Z,26.4
2023-08-15T12:24:31.487Z,26.4
2023-08-15T12:25:33.438Z,26.4
2023-08-15T12:26:35.399Z,26.4
2023-08-15T12:27:37.122Z,26.4
2023-08-15T12:28:41.989Z,26.4
2023-08-15T12:30:11.227Z,26.4
2023-08-15T12:31:23.257Z,26.4
2023-08-15T12:32:28.387Z,26.4
2023-08-15T12:33:41.300Z,26.4
2023-08-15T12:34:49.878Z,26.4
2023-08-15T12:35:51.571Z,26.4
2023-08-15T12:36:53.419Z,26.4
2023-08-15T12:37:55.264Z,26.4
2023-08-15T12:38:57.086Z,26.4
2023-08-15T12:39:58.938Z,26.4
2023-08-15T12:41:00.745Z,26.3
2023-08-15T12:42:02.531Z,26.3
2023-08-15T12:43:04.593Z,26.3
2023-08-15T12:44:06.478Z,26.3
2023-08-15T12:45:08.234Z,26.3
2023-08-15T12:46:09.996Z,26.3
2023-08-15T12:47:18.383Z,26.3
2023-08-15T12:48:20.290Z,26.3
2023-08-15T12:49:22.033Z,26.3
2023-08-15T12:50:24.557Z,26.3
2023-08-15T12:51:26.396Z,26.3
2023-08-15T12:52:28.411Z,26.3
2023-08-15T12:53:30.205Z,26.3
2023-08-15T12:54:32.053Z,26.3
2023-08-15T12:55:33.777Z,26.3
2023-08-15T12:56:35.543Z,26.3
2023-08-15T12:57:37.490Z,26.3
2023-08-15T12:58:39.375Z,26.3
2023-08-15T12:59:41.252Z,26.3
2023-08-15T13:00:42.986Z,26.3
2023-08-15T13:01:44.760Z,26.3
2023-08-15T13:02:46.641Z,26.3
2023-08-15T13:03:48.721Z,26.3
2023-08-15T13:04:50.483Z,26.3
2023-08-15T13:05:52.522Z,26.3
2023-08-15T13:06:54.233Z,26.3
2023-08-15T13:07:56.090Z,26.3
2023-08-15T13:08:58.005Z,26.3
2023-08-15T13:09:59.981Z,26.3
2023-08-15T13:11:01.834Z,26.3
2023-08-15T13:12:03.567Z,26.3
2023-08-15T13:13:05.350Z,26.3
2023-08-15T13:14:07.084Z,26.3
2023-08-15T13:15:08.952Z,26.3
2023-08-15T13:16:10.756Z,26.3
2023-08-15T13:17:12.550Z,26.2
2023-08-15T13:18:14.386Z,26.2
2023-08-15T13:19:16.551Z,26.2
2023-08-15T13:20:18.326Z,26.3
2023-08-15T13:21:22.769Z,26.3
2023-08-15T13:22:24.736Z,26.3
2023-08-15T13:23:27.288Z,26.3
2023-08-15T13:24:29.236Z,26.3
2023-08-15T13:25:31.356Z,26.3
2023-08-15T13:26:33.117Z,26.3
2023-08-15T13:27:34.841Z,26.3
2023-08-15T13:28:36.587Z,26.3
2023-08-15T13:29:38.330Z,26.3
2023-08-15T13:30:40.139Z,26.2
2023-08-15T13:31:42.427Z,26.2
2023-08-15T13:32:44.194Z,26.3
2023-08-15T13:33:46.166Z,26.2
2023-08-15T13:34:47.864Z,26.2
2023-08-15T13:35:49.743Z,26.2
2023-08-15T13:36:51.500Z,26.2
2023-08-15T13:37:53.340Z,26.2
2023-08-15T13:38:55.355Z,26.2
2023-08-15T13:39:57.251Z,26.2
2023-08-15T13:40:59.029Z,26.2
2023-08-15T13:42:00.826Z,26.2
2023-08-15T13:43:02.732Z,26.2
2023-08-15T13:44:04.429Z,26.2
2023-08-15T13:45:08.586Z,26.2
2023-08-15T13:46:12.161Z,26.2
2023-08-15T13:47:17.458Z,26.2
2023-08-15T13:48:19.311Z,26.2
2023-08-15T13:49:21.076Z,26.2
2023-08-15T13:50:25.586Z,26.2